sensor_id;sensor_type;location;lat;lon;timestamp;temperature;humidity
70166;SHT30;57541;47.408;18.822;2022-08-14T00:00:21;19.02;75.40
70166;SHT30;57541;47.408;18.822;2022-08-14T00:00:53;18.87;75.73
70166;SHT30;57541;47.408;18.822;2022-08-14T00:01:24;18.91;75.84
70166;SHT30;57541;47.408;18.822;2022-08-14T00:02:03;18.87;75.91
70166;SHT30;57541;47.408;18.822;2022-08-14T00:02:35;18.88;75.82
70166;SHT30;57541;47.408;18.822;2022-08-14T00:03:07;18.85;75.92
70166;SHT30;57541;47.408;18.822;2022-08-14T00:03:38;18.87;75.94
70166;SHT30;57541;47.408;18.822;2022-08-14T00:04:11;18.83;76.13
70166;SHT30;57541;47.408;18.822;2022-08-14T00:05:04;18.76;76.14
70166;SHT30;57541;47.408;18.822;2022-08-14T00:05:36;18.79;76.15
70166;SHT30;57541;47.408;18.822;2022-08-14T00:06:07;18.76;76.14
70166;SHT30;57541;47.408;18.822;2022-08-14T00:06:59;18.81;76.16
70166;SHT30;57541;47.408;18.822;2022-08-14T00:07:31;18.71;76.44
70166;SHT30;57541;47.408;18.822;2022-08-14T00:08:04;18.76;76.35
70166;SHT30;57541;47.408;18.822;2022-08-14T00:08:44;18.83;76.27
70166;SHT30;57541;47.408;18.822;2022-08-14T00:09:16;18.84;76.16
70166;SHT30;57541;47.408;18.822;2022-08-14T00:09:50;18.78;76.31
70166;SHT30;57541;47.408;18.822;2022-08-14T00:10:42;18.79;76.18
70166;SHT30;57541;47.408;18.822;2022-08-14T00:11:23;18.84;76.22
70166;SHT30;57541;47.408;18.822;2022-08-14T00:11:55;18.89;76.18
70166;SHT30;57541;47.408;18.822;2022-08-14T00:12:27;18.89;76.05
70166;SHT30;57541;47.408;18.822;2022-08-14T00:13:20;18.94;75.84
70166;SHT30;57541;47.408;18.822;2022-08-14T00:13:52;18.94;75.99
70166;SHT30;57541;47.408;18.822;2022-08-14T00:14:25;18.85;76.25
70166;SHT30;57541;47.408;18.822;2022-08-14T00:14:56;18.88;76.11
70166;SHT30;57541;47.408;18.822;2022-08-14T00:15:32;18.79;76.24
70166;SHT30;57541;47.408;18.822;2022-08-14T00:16:14;18.75;76.28
70166;SHT30;57541;47.408;18.822;2022-08-14T00:17:06;18.67;76.67
70166;SHT30;57541;47.408;18.822;2022-08-14T00:17:37;18.65;76.77
70166;SHT30;57541;47.408;18.822;2022-08-14T00:18:25;18.67;76.67
70166;SHT30;57541;47.408;18.822;2022-08-14T00:19:17;18.57;77.06
70166;SHT30;57541;47.408;18.822;2022-08-14T00:19:51;18.44;77.18
70166;SHT30;57541;47.408;18.822;2022-08-14T00:20:27;18.51;77.17
70166;SHT30;57541;47.408;18.822;2022-08-14T00:21:07;18.44;77.25
70166;SHT30;57541;47.408;18.822;2022-08-14T00:21:41;18.37;77.52
70166;SHT30;57541;47.408;18.822;2022-08-14T00:22:13;18.29;77.78
70166;SHT30;57541;47.408;18.822;2022-08-14T00:23:10;18.30;77.65
70166;SHT30;57541;47.408;18.822;2022-08-14T00:23:47;18.27;77.42
70166;SHT30;57541;47.408;18.822;2022-08-14T00:24:24;18.33;77.26
70166;SHT30;57541;47.408;18.822;2022-08-14T00:25:01;18.29;77.37
70166;SHT30;57541;47.408;18.822;2022-08-14T00:25:33;18.23;77.60
70166;SHT30;57541;47.408;18.822;2022-08-14T00:26:12;18.27;77.53
70166;SHT30;57541;47.408;18.822;2022-08-14T00:26:52;18.22;77.81
70166;SHT30;57541;47.408;18.822;2022-08-14T00:27:25;18.23;77.62
70166;SHT30;57541;47.408;18.822;2022-08-14T00:28:00;18.22;77.70
70166;SHT30;57541;47.408;18.822;2022-08-14T00:28:34;18.24;77.59
70166;SHT30;57541;47.408;18.822;2022-08-14T00:29:07;18.22;77.80
70166;SHT30;57541;47.408;18.822;2022-08-14T00:29:39;18.29;77.69
70166;SHT30;57541;47.408;18.822;2022-08-14T00:30:14;18.34;77.54
70166;SHT30;57541;47.408;18.822;2022-08-14T00:30:49;18.30;77.59
70166;SHT30;57541;47.408;18.822;2022-08-14T00:31:21;18.30;77.60
70166;SHT30;57541;47.408;18.822;2022-08-14T00:32:13;18.36;77.40
70166;SHT30;57541;47.408;18.822;2022-08-14T00:33:04;18.26;77.69
70166;SHT30;57541;47.408;18.822;2022-08-14T00:33:46;18.33;77.52
70166;SHT30;57541;47.408;18.822;2022-08-14T00:34:23;18.30;77.53
70166;SHT30;57541;47.408;18.822;2022-08-14T00:35:15;18.32;77.60
70166;SHT30;57541;47.408;18.822;2022-08-14T00:35:47;18.38;77.45
70166;SHT30;57541;47.408;18.822;2022-08-14T00:36:39;18.40;77.20
70166;SHT30;57541;47.408;18.822;2022-08-14T00:37:19;18.38;77.26
70166;SHT30;57541;47.408;18.822;2022-08-14T00:37:51;18.37;77.37
70166;SHT30;57541;47.408;18.822;2022-08-14T00:38:23;18.27;77.55
70166;SHT30;57541;47.408;18.822;2022-08-14T00:38:57;18.29;77.70
70166;SHT30;57541;47.408;18.822;2022-08-14T00:39:31;18.27;77.80
70166;SHT30;57541;47.408;18.822;2022-08-14T00:40:04;18.36;77.60
70166;SHT30;57541;47.408;18.822;2022-08-14T00:40:56;18.41;77.40
70166;SHT30;57541;47.408;18.822;2022-08-14T00:41:31;18.41;77.38
70166;SHT30;57541;47.408;18.822;2022-08-14T00:42:04;18.40;77.38
70166;SHT30;57541;47.408;18.822;2022-08-14T00:42:36;18.38;77.28
70166;SHT30;57541;47.408;18.822;2022-08-14T00:43:26;18.32;77.41
70166;SHT30;57541;47.408;18.822;2022-08-14T00:44:03;18.38;77.45
70166;SHT30;57541;47.408;18.822;2022-08-14T00:44:36;18.34;77.59
70166;SHT30;57541;47.408;18.822;2022-08-14T00:45:14;18.40;77.45
70166;SHT30;57541;47.408;18.822;2022-08-14T00:45:46;18.40;77.40
70166;SHT30;57541;47.408;18.822;2022-08-14T00:46:23;18.40;77.51
70166;SHT30;57541;47.408;18.822;2022-08-14T00:47:04;18.40;77.45
70166;SHT30;57541;47.408;18.822;2022-08-14T00:47:43;18.43;77.25
70166;SHT30;57541;47.408;18.822;2022-08-14T00:48:16;18.46;77.15
70166;SHT30;57541;47.408;18.822;2022-08-14T00:49:07;18.44;77.27
70166;SHT30;57541;47.408;18.822;2022-08-14T00:49:44;18.48;77.09
70166;SHT30;57541;47.408;18.822;2022-08-14T00:50:20;18.54;77.02
70166;SHT30;57541;47.408;18.822;2022-08-14T00:50:52;18.58;76.95
70166;SHT30;57541;47.408;18.822;2022-08-14T00:51:26;18.61;76.83
70166;SHT30;57541;47.408;18.822;2022-08-14T00:52:13;18.60;76.83
70166;SHT30;57541;47.408;18.822;2022-08-14T00:52:50;18.50;77.08
70166;SHT30;57541;47.408;18.822;2022-08-14T00:53:22;18.51;77.12
70166;SHT30;57541;47.408;18.822;2022-08-14T00:53:56;18.51;77.26
70166;SHT30;57541;47.408;18.822;2022-08-14T00:54:27;18.41;77.53
70166;SHT30;57541;47.408;18.822;2022-08-14T00:55:00;18.43;77.53
70166;SHT30;57541;47.408;18.822;2022-08-14T00:55:34;18.46;77.60
70166;SHT30;57541;47.408;18.822;2022-08-14T00:56:09;18.36;77.77
70166;SHT30;57541;47.408;18.822;2022-08-14T00:56:45;18.33;77.98
70166;SHT30;57541;47.408;18.822;2022-08-14T00:57:20;18.34;77.87
70166;SHT30;57541;47.408;18.822;2022-08-14T00:57:53;18.40;77.76
70166;SHT30;57541;47.408;18.822;2022-08-14T00:58:43;18.43;77.56
70166;SHT30;57541;47.408;18.822;2022-08-14T00:59:19;18.46;77.51
70166;SHT30;57541;47.408;18.822;2022-08-14T00:59:51;18.41;77.43
70166;SHT30;57541;47.408;18.822;2022-08-14T01:00:24;18.36;77.61
70166;SHT30;57541;47.408;18.822;2022-08-14T01:01:15;18.37;77.57
70166;SHT30;57541;47.408;18.822;2022-08-14T01:01:49;18.37;77.44
70166;SHT30;57541;47.408;18.822;2022-08-14T01:02:23;18.23;77.49
70166;SHT30;57541;47.408;18.822;2022-08-14T01:03:04;18.00;78.57
70166;SHT30;57541;47.408;18.822;2022-08-14T01:03:37;17.93;78.60
70166;SHT30;57541;47.408;18.822;2022-08-14T01:04:13;17.96;78.68
70166;SHT30;57541;47.408;18.822;2022-08-14T01:05:05;18.07;78.41
70166;SHT30;57541;47.408;18.822;2022-08-14T01:05:38;18.13;78.32
70166;SHT30;57541;47.408;18.822;2022-08-14T01:06:22;18.13;78.25
70166;SHT30;57541;47.408;18.822;2022-08-14T01:07:00;18.09;78.24
70166;SHT30;57541;47.408;18.822;2022-08-14T01:07:40;18.05;78.59
70166;SHT30;57541;47.408;18.822;2022-08-14T01:08:26;18.00;78.73
70166;SHT30;57541;47.408;18.822;2022-08-14T01:09:19;17.93;79.17
70166;SHT30;57541;47.408;18.822;2022-08-14T01:09:59;17.95;79.06
70166;SHT30;57541;47.408;18.822;2022-08-14T01:10:35;17.99;79.18
70166;SHT30;57541;47.408;18.822;2022-08-14T01:11:23;17.96;79.26
70166;SHT30;57541;47.408;18.822;2022-08-14T01:12:03;17.93;79.16
70166;SHT30;57541;47.408;18.822;2022-08-14T01:12:37;17.89;79.69
70166;SHT30;57541;47.408;18.822;2022-08-14T01:13:14;17.92;79.94
70166;SHT30;57541;47.408;18.822;2022-08-14T01:13:47;17.92;79.84
70166;SHT30;57541;47.408;18.822;2022-08-14T01:14:31;17.97;79.94
70166;SHT30;57541;47.408;18.822;2022-08-14T01:15:06;18.00;80.01
70166;SHT30;57541;47.408;18.822;2022-08-14T01:15:40;18.05;79.86
70166;SHT30;57541;47.408;18.822;2022-08-14T01:16:31;18.13;79.48
70166;SHT30;57541;47.408;18.822;2022-08-14T01:17:03;18.07;79.78
70166;SHT30;57541;47.408;18.822;2022-08-14T01:17:39;18.10;79.62
70166;SHT30;57541;47.408;18.822;2022-08-14T01:18:31;18.17;79.63
70166;SHT30;57541;47.408;18.822;2022-08-14T01:19:32;18.16;79.86
70166;SHT30;57541;47.408;18.822;2022-08-14T01:20:24;18.17;79.71
70166;SHT30;57541;47.408;18.822;2022-08-14T01:21:15;18.16;79.38
70166;SHT30;57541;47.408;18.822;2022-08-14T01:21:47;18.20;79.24
70166;SHT30;57541;47.408;18.822;2022-08-14T01:22:24;18.12;79.86
70166;SHT30;57541;47.408;18.822;2022-08-14T01:22:57;18.12;79.91
70166;SHT30;57541;47.408;18.822;2022-08-14T01:23:29;18.17;79.74
70166;SHT30;57541;47.408;18.822;2022-08-14T01:24:17;18.16;79.71
70166;SHT30;57541;47.408;18.822;2022-08-14T01:25:01;18.14;79.61
70166;SHT30;57541;47.408;18.822;2022-08-14T01:25:34;18.14;79.80
70166;SHT30;57541;47.408;18.822;2022-08-14T01:26:10;18.12;79.76
70166;SHT30;57541;47.408;18.822;2022-08-14T01:26:53;18.05;79.75
70166;SHT30;57541;47.408;18.822;2022-08-14T01:27:26;17.97;79.83
70166;SHT30;57541;47.408;18.822;2022-08-14T01:28:00;17.99;79.77
70166;SHT30;57541;47.408;18.822;2022-08-14T01:28:32;17.95;79.89
70166;SHT30;57541;47.408;18.822;2022-08-14T01:29:30;17.90;79.94
70166;SHT30;57541;47.408;18.822;2022-08-14T01:30:29;17.95;79.80
70166;SHT30;57541;47.408;18.822;2022-08-14T01:31:15;17.85;80.07
70166;SHT30;57541;47.408;18.822;2022-08-14T01:31:47;17.85;80.20
70166;SHT30;57541;47.408;18.822;2022-08-14T01:32:22;17.78;80.48
70166;SHT30;57541;47.408;18.822;2022-08-14T01:32:54;17.75;80.56
70166;SHT30;57541;47.408;18.822;2022-08-14T01:33:27;17.75;80.51
70166;SHT30;57541;47.408;18.822;2022-08-14T01:34:02;17.75;80.51
70166;SHT30;57541;47.408;18.822;2022-08-14T01:34:55;17.76;80.47
70166;SHT30;57541;47.408;18.822;2022-08-14T01:35:47;17.75;80.75
70166;SHT30;57541;47.408;18.822;2022-08-14T01:36:37;17.72;80.62
70166;SHT30;57541;47.408;18.822;2022-08-14T01:37:10;17.75;80.69
70166;SHT30;57541;47.408;18.822;2022-08-14T01:37:45;17.74;80.82
70166;SHT30;57541;47.408;18.822;2022-08-14T01:38:27;17.69;80.91
70166;SHT30;57541;47.408;18.822;2022-08-14T01:39:16;17.61;81.00
70166;SHT30;57541;47.408;18.822;2022-08-14T01:39:49;17.72;80.74
70166;SHT30;57541;47.408;18.822;2022-08-14T01:40:25;17.82;80.52
70166;SHT30;57541;47.408;18.822;2022-08-14T01:41:15;17.83;80.45
70166;SHT30;57541;47.408;18.822;2022-08-14T01:41:53;17.83;80.43
70166;SHT30;57541;47.408;18.822;2022-08-14T01:42:31;17.81;80.51
70166;SHT30;57541;47.408;18.822;2022-08-14T01:43:14;17.86;80.36
70166;SHT30;57541;47.408;18.822;2022-08-14T01:43:55;17.65;81.00
70166;SHT30;57541;47.408;18.822;2022-08-14T01:44:31;17.72;80.84
70166;SHT30;57541;47.408;18.822;2022-08-14T01:45:05;17.65;80.92
70166;SHT30;57541;47.408;18.822;2022-08-14T01:45:48;17.69;81.11
70166;SHT30;57541;47.408;18.822;2022-08-14T01:46:39;17.66;81.16
70166;SHT30;57541;47.408;18.822;2022-08-14T01:47:11;17.69;81.06
70166;SHT30;57541;47.408;18.822;2022-08-14T01:47:52;17.64;81.38
70166;SHT30;57541;47.408;18.822;2022-08-14T01:48:34;17.66;81.31
70166;SHT30;57541;47.408;18.822;2022-08-14T01:49:10;17.65;81.24
70166;SHT30;57541;47.408;18.822;2022-08-14T01:49:44;17.69;81.23
70166;SHT30;57541;47.408;18.822;2022-08-14T01:50:30;17.74;81.35
70166;SHT30;57541;47.408;18.822;2022-08-14T01:51:05;17.74;81.25
70166;SHT30;57541;47.408;18.822;2022-08-14T01:51:51;17.71;81.38
70166;SHT30;57541;47.408;18.822;2022-08-14T01:52:30;17.76;81.22
70166;SHT30;57541;47.408;18.822;2022-08-14T01:53:22;17.69;81.39
70166;SHT30;57541;47.408;18.822;2022-08-14T01:54:05;17.74;81.46
70166;SHT30;57541;47.408;18.822;2022-08-14T01:54:39;17.78;81.24
70166;SHT30;57541;47.408;18.822;2022-08-14T01:55:14;17.79;81.14
70166;SHT30;57541;47.408;18.822;2022-08-14T01:55:47;17.81;80.94
70166;SHT30;57541;47.408;18.822;2022-08-14T01:56:32;17.78;80.97
70166;SHT30;57541;47.408;18.822;2022-08-14T01:57:09;17.74;81.06
70166;SHT30;57541;47.408;18.822;2022-08-14T01:57:44;17.78;80.84
70166;SHT30;57541;47.408;18.822;2022-08-14T01:58:36;17.65;81.12
70166;SHT30;57541;47.408;18.822;2022-08-14T01:59:30;17.61;81.18
70166;SHT30;57541;47.408;18.822;2022-08-14T02:00:09;17.55;81.46
70166;SHT30;57541;47.408;18.822;2022-08-14T02:01:04;17.49;81.63
70166;SHT30;57541;47.408;18.822;2022-08-14T02:01:39;17.49;81.43
70166;SHT30;57541;47.408;18.822;2022-08-14T02:02:21;17.44;81.61
70166;SHT30;57541;47.408;18.822;2022-08-14T02:02:54;17.38;81.69
70166;SHT30;57541;47.408;18.822;2022-08-14T02:03:29;17.41;81.70
70166;SHT30;57541;47.408;18.822;2022-08-14T02:04:03;17.31;81.96
70166;SHT30;57541;47.408;18.822;2022-08-14T02:04:51;17.30;82.17
70166;SHT30;57541;47.408;18.822;2022-08-14T02:05:28;17.28;82.16
70166;SHT30;57541;47.408;18.822;2022-08-14T02:06:06;17.35;82.13
70166;SHT30;57541;47.408;18.822;2022-08-14T02:06:58;17.27;82.34
70166;SHT30;57541;47.408;18.822;2022-08-14T02:07:30;17.32;82.20
70166;SHT30;57541;47.408;18.822;2022-08-14T02:08:23;17.38;82.21
70166;SHT30;57541;47.408;18.822;2022-08-14T02:09:07;17.41;82.13
70166;SHT30;57541;47.408;18.822;2022-08-14T02:09:49;17.45;81.94
70166;SHT30;57541;47.408;18.822;2022-08-14T02:10:26;17.47;81.97
70166;SHT30;57541;47.408;18.822;2022-08-14T02:11:09;17.39;82.27
70166;SHT30;57541;47.408;18.822;2022-08-14T02:11:50;17.38;82.26
70166;SHT30;57541;47.408;18.822;2022-08-14T02:12:25;17.41;82.23
70166;SHT30;57541;47.408;18.822;2022-08-14T02:13:01;17.44;82.24
70166;SHT30;57541;47.408;18.822;2022-08-14T02:13:39;17.51;81.95
70166;SHT30;57541;47.408;18.822;2022-08-14T02:14:13;17.54;81.74
70166;SHT30;57541;47.408;18.822;2022-08-14T02:15:03;17.64;81.50
70166;SHT30;57541;47.408;18.822;2022-08-14T02:15:35;17.68;81.24
70166;SHT30;57541;47.408;18.822;2022-08-14T02:16:16;17.76;81.02
70166;SHT30;57541;47.408;18.822;2022-08-14T02:16:53;17.83;80.69
70166;SHT30;57541;47.408;18.822;2022-08-14T02:17:26;17.74;80.89
70166;SHT30;57541;47.408;18.822;2022-08-14T02:17:57;17.72;80.85
70166;SHT30;57541;47.408;18.822;2022-08-14T02:18:32;17.76;80.95
70166;SHT30;57541;47.408;18.822;2022-08-14T02:19:08;17.72;81.12
70166;SHT30;57541;47.408;18.822;2022-08-14T02:19:40;17.65;81.40
70166;SHT30;57541;47.408;18.822;2022-08-14T02:20:13;17.62;81.31
70166;SHT30;57541;47.408;18.822;2022-08-14T02:20:50;17.69;81.35
70166;SHT30;57541;47.408;18.822;2022-08-14T02:21:22;17.66;81.31
70166;SHT30;57541;47.408;18.822;2022-08-14T02:21:56;17.64;81.37
70166;SHT30;57541;47.408;18.822;2022-08-14T02:22:34;17.66;81.29
70166;SHT30;57541;47.408;18.822;2022-08-14T02:23:17;17.54;81.61
70166;SHT30;57541;47.408;18.822;2022-08-14T02:24:04;17.42;82.02
70166;SHT30;57541;47.408;18.822;2022-08-14T02:24:39;17.42;82.17
70166;SHT30;57541;47.408;18.822;2022-08-14T02:25:18;17.47;81.85
70166;SHT30;57541;47.408;18.822;2022-08-14T02:25:50;17.51;81.69
70166;SHT30;57541;47.408;18.822;2022-08-14T02:26:28;17.41;81.72
70166;SHT30;57541;47.408;18.822;2022-08-14T02:27:01;17.49;81.80
70166;SHT30;57541;47.408;18.822;2022-08-14T02:27:52;17.51;81.69
70166;SHT30;57541;47.408;18.822;2022-08-14T02:28:49;17.39;82.04
70166;SHT30;57541;47.408;18.822;2022-08-14T02:29:30;17.42;81.87
70166;SHT30;57541;47.408;18.822;2022-08-14T02:30:24;17.35;82.09
70166;SHT30;57541;47.408;18.822;2022-08-14T02:31:01;17.32;82.29
70166;SHT30;57541;47.408;18.822;2022-08-14T02:31:36;17.37;82.24
70166;SHT30;57541;47.408;18.822;2022-08-14T02:32:14;17.41;82.04
70166;SHT30;57541;47.408;18.822;2022-08-14T02:33:06;17.30;82.21
70166;SHT30;57541;47.408;18.822;2022-08-14T02:33:41;17.28;82.39
70166;SHT30;57541;47.408;18.822;2022-08-14T02:34:32;17.08;82.95
70166;SHT30;57541;47.408;18.822;2022-08-14T02:35:09;17.21;82.66
70166;SHT30;57541;47.408;18.822;2022-08-14T02:35:48;17.26;82.48
70166;SHT30;57541;47.408;18.822;2022-08-14T02:36:28;17.26;82.41
70166;SHT30;57541;47.408;18.822;2022-08-14T02:37:20;17.14;82.91
70166;SHT30;57541;47.408;18.822;2022-08-14T02:37:52;17.20;82.64
70166;SHT30;57541;47.408;18.822;2022-08-14T02:38:24;17.17;82.77
70166;SHT30;57541;47.408;18.822;2022-08-14T02:39:00;17.18;82.71
70166;SHT30;57541;47.408;18.822;2022-08-14T02:39:34;17.17;82.68
70166;SHT30;57541;47.408;18.822;2022-08-14T02:40:08;17.17;82.73
70166;SHT30;57541;47.408;18.822;2022-08-14T02:40:39;17.18;82.77
70166;SHT30;57541;47.408;18.822;2022-08-14T02:41:15;17.20;82.69
70166;SHT30;57541;47.408;18.822;2022-08-14T02:41:49;17.18;82.68
70166;SHT30;57541;47.408;18.822;2022-08-14T02:42:28;17.14;82.76
70166;SHT30;57541;47.408;18.822;2022-08-14T02:43:07;17.10;82.79
70166;SHT30;57541;47.408;18.822;2022-08-14T02:43:41;17.03;83.30
70166;SHT30;57541;47.408;18.822;2022-08-14T02:44:18;17.13;83.02
70166;SHT30;57541;47.408;18.822;2022-08-14T02:45:00;17.13;82.85
70166;SHT30;57541;47.408;18.822;2022-08-14T02:45:32;17.14;82.98
70166;SHT30;57541;47.408;18.822;2022-08-14T02:46:14;17.14;82.86
70166;SHT30;57541;47.408;18.822;2022-08-14T02:46:57;17.16;82.74
70166;SHT30;57541;47.408;18.822;2022-08-14T02:47:31;17.18;82.62
70166;SHT30;57541;47.408;18.822;2022-08-14T02:48:09;17.02;83.12
70166;SHT30;57541;47.408;18.822;2022-08-14T02:49:00;17.04;83.30
70166;SHT30;57541;47.408;18.822;2022-08-14T02:49:37;17.00;83.37
70166;SHT30;57541;47.408;18.822;2022-08-14T02:50:13;17.07;83.25
70166;SHT30;57541;47.408;18.822;2022-08-14T02:50:47;17.13;83.02
70166;SHT30;57541;47.408;18.822;2022-08-14T02:51:22;17.16;82.90
70166;SHT30;57541;47.408;18.822;2022-08-14T02:52:01;17.16;82.80
70166;SHT30;57541;47.408;18.822;2022-08-14T02:52:54;17.18;82.70
70166;SHT30;57541;47.408;18.822;2022-08-14T02:53:33;17.16;82.68
70166;SHT30;57541;47.408;18.822;2022-08-14T02:54:08;17.11;82.80
70166;SHT30;57541;47.408;18.822;2022-08-14T02:54:43;17.17;82.75
70166;SHT30;57541;47.408;18.822;2022-08-14T02:55:16;17.18;82.70
70166;SHT30;57541;47.408;18.822;2022-08-14T02:55:50;17.16;82.62
70166;SHT30;57541;47.408;18.822;2022-08-14T02:56:23;17.20;82.57
70166;SHT30;57541;47.408;18.822;2022-08-14T02:57:16;17.17;82.80
70166;SHT30;57541;47.408;18.822;2022-08-14T02:58:08;17.14;82.78
70166;SHT30;57541;47.408;18.822;2022-08-14T02:58:52;17.21;82.65
70166;SHT30;57541;47.408;18.822;2022-08-14T02:59:27;17.24;82.45
70166;SHT30;57541;47.408;18.822;2022-08-14T03:00:04;17.17;82.62
70166;SHT30;57541;47.408;18.822;2022-08-14T03:00:40;17.18;82.64
70166;SHT30;57541;47.408;18.822;2022-08-14T03:01:17;17.14;82.63
70166;SHT30;57541;47.408;18.822;2022-08-14T03:01:49;17.16;82.89
70166;SHT30;57541;47.408;18.822;2022-08-14T03:02:25;17.26;82.53
70166;SHT30;57541;47.408;18.822;2022-08-14T03:03:17;17.21;82.51
70166;SHT30;57541;47.408;18.822;2022-08-14T03:03:50;17.24;82.66
70166;SHT30;57541;47.408;18.822;2022-08-14T03:04:22;17.21;82.57
70166;SHT30;57541;47.408;18.822;2022-08-14T03:04:55;17.24;82.49
70166;SHT30;57541;47.408;18.822;2022-08-14T03:05:28;17.24;82.47
70166;SHT30;57541;47.408;18.822;2022-08-14T03:06:07;17.30;82.35
70166;SHT30;57541;47.408;18.822;2022-08-14T03:06:40;17.34;82.18
70166;SHT30;57541;47.408;18.822;2022-08-14T03:07:33;17.34;82.14
70166;SHT30;57541;47.408;18.822;2022-08-14T03:08:11;17.21;82.47
70166;SHT30;57541;47.408;18.822;2022-08-14T03:08:49;17.30;82.39
70166;SHT30;57541;47.408;18.822;2022-08-14T03:09:20;17.24;82.51
70166;SHT30;57541;47.408;18.822;2022-08-14T03:09:53;17.14;82.80
70166;SHT30;57541;47.408;18.822;2022-08-14T03:10:45;17.13;82.83
70166;SHT30;57541;47.408;18.822;2022-08-14T03:11:19;17.04;83.10
70166;SHT30;57541;47.408;18.822;2022-08-14T03:11:53;17.06;83.03
70166;SHT30;57541;47.408;18.822;2022-08-14T03:12:26;17.06;83.16
70166;SHT30;57541;47.408;18.822;2022-08-14T03:13:03;17.06;83.12
70166;SHT30;57541;47.408;18.822;2022-08-14T03:13:36;16.93;83.48
70166;SHT30;57541;47.408;18.822;2022-08-14T03:14:11;16.94;83.49
70166;SHT30;57541;47.408;18.822;2022-08-14T03:14:45;16.96;83.40
70166;SHT30;57541;47.408;18.822;2022-08-14T03:15:20;16.93;83.43
70166;SHT30;57541;47.408;18.822;2022-08-14T03:15:52;16.90;83.66
70166;SHT30;57541;47.408;18.822;2022-08-14T03:16:28;16.94;83.51
70166;SHT30;57541;47.408;18.822;2022-08-14T03:17:08;16.94;83.44
70166;SHT30;57541;47.408;18.822;2022-08-14T03:17:43;16.97;83.49
70166;SHT30;57541;47.408;18.822;2022-08-14T03:18:28;16.96;83.67
70166;SHT30;57541;47.408;18.822;2022-08-14T03:19:03;17.03;83.55
70166;SHT30;57541;47.408;18.822;2022-08-14T03:19:37;17.03;83.67
70166;SHT30;57541;47.408;18.822;2022-08-14T03:20:09;17.06;83.54
70166;SHT30;57541;47.408;18.822;2022-08-14T03:20:42;17.08;83.39
70166;SHT30;57541;47.408;18.822;2022-08-14T03:21:18;17.04;83.60
70166;SHT30;57541;47.408;18.822;2022-08-14T03:21:51;17.07;83.51
70166;SHT30;57541;47.408;18.822;2022-08-14T03:22:24;17.07;83.63
70166;SHT30;57541;47.408;18.822;2022-08-14T03:23:00;17.07;83.62
70166;SHT30;57541;47.408;18.822;2022-08-14T03:23:35;17.06;83.65
70166;SHT30;57541;47.408;18.822;2022-08-14T03:24:09;17.06;83.76
70166;SHT30;57541;47.408;18.822;2022-08-14T03:24:53;17.11;83.56
70166;SHT30;57541;47.408;18.822;2022-08-14T03:25:24;17.13;83.47
70166;SHT30;57541;47.408;18.822;2022-08-14T03:25:56;17.14;83.54
70166;SHT30;57541;47.408;18.822;2022-08-14T03:26:28;17.13;83.72
70166;SHT30;57541;47.408;18.822;2022-08-14T03:27:02;17.13;83.91
70166;SHT30;57541;47.408;18.822;2022-08-14T03:27:37;17.08;83.92
70166;SHT30;57541;47.408;18.822;2022-08-14T03:28:29;17.16;83.65
70166;SHT30;57541;47.408;18.822;2022-08-14T03:29:04;17.17;83.91
70166;SHT30;57541;47.408;18.822;2022-08-14T03:29:44;17.23;84.15
70166;SHT30;57541;47.408;18.822;2022-08-14T03:30:16;17.24;83.97
70166;SHT30;57541;47.408;18.822;2022-08-14T03:30:54;17.26;84.19
70166;SHT30;57541;47.408;18.822;2022-08-14T03:31:30;17.26;84.27
70166;SHT30;57541;47.408;18.822;2022-08-14T03:32:02;17.30;84.10
70166;SHT30;57541;47.408;18.822;2022-08-14T03:32:36;17.24;84.21
70166;SHT30;57541;47.408;18.822;2022-08-14T03:33:11;17.28;84.30
70166;SHT30;57541;47.408;18.822;2022-08-14T03:33:43;17.30;84.27
70166;SHT30;57541;47.408;18.822;2022-08-14T03:34:22;17.34;84.18
70166;SHT30;57541;47.408;18.822;2022-08-14T03:35:13;17.34;84.26
70166;SHT30;57541;47.408;18.822;2022-08-14T03:35:45;17.32;84.35
70166;SHT30;57541;47.408;18.822;2022-08-14T03:36:38;17.34;84.29
70166;SHT30;57541;47.408;18.822;2022-08-14T03:37:33;17.38;84.03
70166;SHT30;57541;47.408;18.822;2022-08-14T03:38:26;17.38;83.97
70166;SHT30;57541;47.408;18.822;2022-08-14T03:39:18;17.37;84.11
70166;SHT30;57541;47.408;18.822;2022-08-14T03:39:53;17.34;84.18
70166;SHT30;57541;47.408;18.822;2022-08-14T03:40:25;17.37;83.80
70166;SHT30;57541;47.408;18.822;2022-08-14T03:40:57;17.37;83.71
70166;SHT30;57541;47.408;18.822;2022-08-14T03:41:29;17.38;83.96
70166;SHT30;57541;47.408;18.822;2022-08-14T03:42:04;17.37;83.96
70166;SHT30;57541;47.408;18.822;2022-08-14T03:42:49;17.34;83.81
70166;SHT30;57541;47.408;18.822;2022-08-14T03:43:21;17.30;84.02
70166;SHT30;57541;47.408;18.822;2022-08-14T03:43:57;17.28;84.02
70166;SHT30;57541;47.408;18.822;2022-08-14T03:44:50;17.28;83.98
70166;SHT30;57541;47.408;18.822;2022-08-14T03:45:41;17.31;83.94
70166;SHT30;57541;47.408;18.822;2022-08-14T03:46:19;17.30;83.84
70166;SHT30;57541;47.408;18.822;2022-08-14T03:47:12;17.30;84.05
70166;SHT30;57541;47.408;18.822;2022-08-14T03:47:45;17.27;84.09
70166;SHT30;57541;47.408;18.822;2022-08-14T03:48:28;17.30;84.12
70166;SHT30;57541;47.408;18.822;2022-08-14T03:49:10;17.28;84.23
70166;SHT30;57541;47.408;18.822;2022-08-14T03:49:43;17.24;84.27
70166;SHT30;57541;47.408;18.822;2022-08-14T03:50:20;17.31;84.26
70166;SHT30;57541;47.408;18.822;2022-08-14T03:51:02;17.32;84.16
70166;SHT30;57541;47.408;18.822;2022-08-14T03:51:34;17.34;84.19
70166;SHT30;57541;47.408;18.822;2022-08-14T03:52:06;17.34;84.10
70166;SHT30;57541;47.408;18.822;2022-08-14T03:52:59;17.34;84.22
70166;SHT30;57541;47.408;18.822;2022-08-14T03:53:32;17.32;84.20
70166;SHT30;57541;47.408;18.822;2022-08-14T03:54:08;17.35;84.29
70166;SHT30;57541;47.408;18.822;2022-08-14T03:54:46;17.34;84.35
70166;SHT30;57541;47.408;18.822;2022-08-14T03:55:23;17.39;84.24
70166;SHT30;57541;47.408;18.822;2022-08-14T03:55:54;17.44;84.10
70166;SHT30;57541;47.408;18.822;2022-08-14T03:56:29;17.41;84.20
70166;SHT30;57541;47.408;18.822;2022-08-14T03:57:02;17.39;84.10
70166;SHT30;57541;47.408;18.822;2022-08-14T03:57:33;17.41;84.10
70166;SHT30;57541;47.408;18.822;2022-08-14T03:58:08;17.38;84.30
70166;SHT30;57541;47.408;18.822;2022-08-14T03:58:46;17.41;84.20
70166;SHT30;57541;47.408;18.822;2022-08-14T03:59:19;17.38;84.31
70166;SHT30;57541;47.408;18.822;2022-08-14T03:59:51;17.41;84.27